sensor_id;sensor_type;location;lat;lon;timestamp;P1;durP1;ratioP1;P2;durP2;ratioP2
65162;SDS011;51751;55.714;37.436;2022-11-20T00:00:16;7.88;;;5.10;;
65162;SDS011;51751;55.714;37.436;2022-11-20T00:02:42;12.52;;;5.68;;
65162;SDS011;51751;55.714;37.436;2022-11-20T00:05:08;10.02;;;5.70;;
65162;SDS011;51751;55.714;37.436;2022-11-20T00:07:37;13.05;;;6.38;;
65162;SDS011;51751;55.714;37.436;2022-11-20T00:10:05;9.75;;;5.95;;
65162;SDS011;51751;55.714;37.436;2022-11-20T00:12:31;11.55;;;5.97;;
65162;SDS011;51751;55.714;37.436;2022-11-20T00:14:57;10.65;;;6.65;;
65162;SDS011;51751;55.714;37.436;2022-11-20T00:17:26;10.50;;;6.50;;
65162;SDS011;51751;55.714;37.436;2022-11-20T00:20:10;13.75;;;6.82;;
65162;SDS011;51751;55.714;37.436;2022-11-20T00:22:37;11.27;;;6.50;;
65162;SDS011;51751;55.714;37.436;2022-11-20T00:25:06;11.32;;;6.35;;
65162;SDS011;51751;55.714;37.436;2022-11-20T00:27:32;12.07;;;6.45;;
65162;SDS011;51751;55.714;37.436;2022-11-20T00:30:02;12.40;;;6.38;;
65162;SDS011;51751;55.714;37.436;2022-11-20T00:32:31;12.75;;;6.05;;
65162;SDS011;51751;55.714;37.436;2022-11-20T00:34:57;9.50;;;5.53;;
65162;SDS011;51751;55.714;37.436;2022-11-20T00:37:26;11.52;;;6.53;;
65162;SDS011;51751;55.714;37.436;2022-11-20T00:39:52;12.52;;;6.63;;
65162;SDS011;51751;55.714;37.436;2022-11-20T00:42:18;9.95;;;6.47;;
65162;SDS011;51751;55.714;37.436;2022-11-20T00:44:44;10.18;;;5.65;;
65162;SDS011;51751;55.714;37.436;2022-11-20T00:47:09;11.27;;;6.20;;
65162;SDS011;51751;55.714;37.436;2022-11-20T00:49:35;10.68;;;6.43;;
65162;SDS011;51751;55.714;37.436;2022-11-20T00:52:02;10.63;;;6.28;;
65162;SDS011;51751;55.714;37.436;2022-11-20T00:54:27;15.23;;;6.43;;
65162;SDS011;51751;55.714;37.436;2022-11-20T00:57:02;11.18;;;6.35;;
65162;SDS011;51751;55.714;37.436;2022-11-20T00:59:28;11.15;;;5.88;;
65162;SDS011;51751;55.714;37.436;2022-11-20T01:01:54;9.80;;;5.97;;
65162;SDS011;51751;55.714;37.436;2022-11-20T01:04:20;11.07;;;6.05;;
65162;SDS011;51751;55.714;37.436;2022-11-20T01:06:46;11.43;;;5.95;;
65162;SDS011;51751;55.714;37.436;2022-11-20T01:09:14;9.98;;;6.20;;
65162;SDS011;51751;55.714;37.436;2022-11-20T01:11:41;11.05;;;5.80;;
65162;SDS011;51751;55.714;37.436;2022-11-20T01:14:15;10.77;;;6.07;;
65162;SDS011;51751;55.714;37.436;2022-11-20T01:17:01;10.93;;;5.43;;
65162;SDS011;51751;55.714;37.436;2022-11-20T01:19:27;12.02;;;6.07;;
65162;SDS011;51751;55.714;37.436;2022-11-20T01:21:54;11.60;;;5.63;;
65162;SDS011;51751;55.714;37.436;2022-11-20T01:24:27;10.68;;;5.93;;
65162;SDS011;51751;55.714;37.436;2022-11-20T01:26:53;9.90;;;5.63;;
65162;SDS011;51751;55.714;37.436;2022-11-20T01:29:23;6.22;;;3.75;;
65162;SDS011;51751;55.714;37.436;2022-11-20T01:31:49;9.82;;;5.32;;
65162;SDS011;51751;55.714;37.436;2022-11-20T01:34:17;8.85;;;5.28;;
65162;SDS011;51751;55.714;37.436;2022-11-20T01:36:45;9.65;;;5.45;;
65162;SDS011;51751;55.714;37.436;2022-11-20T01:39:12;9.32;;;5.50;;
65162;SDS011;51751;55.714;37.436;2022-11-20T01:41:42;9.52;;;5.63;;
65162;SDS011;51751;55.714;37.436;2022-11-20T01:44:45;9.63;;;5.22;;
65162;SDS011;51751;55.714;37.436;2022-11-20T01:47:16;12.18;;;5.03;;
65162;SDS011;51751;55.714;37.436;2022-11-20T01:49:48;8.88;;;5.10;;
65162;SDS011;51751;55.714;37.436;2022-11-20T01:52:22;9.15;;;5.82;;
65162;SDS011;51751;55.714;37.436;2022-11-20T01:54:54;10.20;;;5.72;;
65162;SDS011;51751;55.714;37.436;2022-11-20T01:57:41;9.73;;;5.45;;
65162;SDS011;51751;55.714;37.436;2022-11-20T02:00:10;7.30;;;4.75;;
65162;SDS011;51751;55.714;37.436;2022-11-20T02:02:41;8.93;;;5.45;;
65162;SDS011;51751;55.714;37.436;2022-11-20T02:08:17;7.88;;;4.30;;
65162;SDS011;51751;55.714;37.436;2022-11-20T02:10:43;8.15;;;5.72;;
65162;SDS011;51751;55.714;37.436;2022-11-20T02:13:09;9.20;;;5.25;;
65162;SDS011;51751;55.714;37.436;2022-11-20T02:15:53;8.35;;;5.00;;
65162;SDS011;51751;55.714;37.436;2022-11-20T02:18:20;9.88;;;5.55;;
65162;SDS011;51751;55.714;37.436;2022-11-20T02:21:06;9.70;;;5.80;;
65162;SDS011;51751;55.714;37.436;2022-11-20T02:26:20;7.68;;;4.78;;
65162;SDS011;51751;55.714;37.436;2022-11-20T02:28:46;10.30;;;5.25;;
65162;SDS011;51751;55.714;37.436;2022-11-20T02:31:12;13.18;;;5.57;;
65162;SDS011;51751;55.714;37.436;2022-11-20T02:33:41;6.97;;;4.78;;
65162;SDS011;51751;55.714;37.436;2022-11-20T02:36:07;8.32;;;4.72;;
65162;SDS011;51751;55.714;37.436;2022-11-20T02:38:42;8.90;;;5.05;;
65162;SDS011;51751;55.714;37.436;2022-11-20T02:41:08;8.30;;;4.85;;
65162;SDS011;51751;55.714;37.436;2022-11-20T02:43:34;9.18;;;4.72;;
65162;SDS011;51751;55.714;37.436;2022-11-20T02:46:00;8.23;;;4.72;;
65162;SDS011;51751;55.714;37.436;2022-11-20T02:48:26;8.38;;;4.93;;
65162;SDS011;51751;55.714;37.436;2022-11-20T02:50:52;7.57;;;4.85;;
65162;SDS011;51751;55.714;37.436;2022-11-20T02:53:17;8.40;;;5.35;;
65162;SDS011;51751;55.714;37.436;2022-11-20T02:55:43;8.65;;;5.07;;
65162;SDS011;51751;55.714;37.436;2022-11-20T02:58:09;8.82;;;5.38;;
65162;SDS011;51751;55.714;37.436;2022-11-20T03:00:35;9.20;;;5.13;;
65162;SDS011;51751;55.714;37.436;2022-11-20T03:03:01;9.95;;;4.38;;
65162;SDS011;51751;55.714;37.436;2022-11-20T03:05:27;8.02;;;5.00;;
65162;SDS011;51751;55.714;37.436;2022-11-20T03:08:11;8.55;;;5.00;;
65162;SDS011;51751;55.714;37.436;2022-11-20T03:10:38;8.35;;;4.85;;
65162;SDS011;51751;55.714;37.436;2022-11-20T03:13:03;8.25;;;4.78;;
65162;SDS011;51751;55.714;37.436;2022-11-20T03:15:29;8.35;;;5.25;;
65162;SDS011;51751;55.714;37.436;2022-11-20T03:17:55;8.82;;;5.30;;
65162;SDS011;51751;55.714;37.436;2022-11-20T03:20:46;9.27;;;5.07;;
65162;SDS011;51751;55.714;37.436;2022-11-20T03:23:12;6.95;;;4.45;;
65162;SDS011;51751;55.714;37.436;2022-11-20T03:25:38;9.23;;;5.20;;
65162;SDS011;51751;55.714;37.436;2022-11-20T03:28:04;8.40;;;4.93;;
65162;SDS011;51751;55.714;37.436;2022-11-20T03:30:30;9.40;;;5.03;;
65162;SDS011;51751;55.714;37.436;2022-11-20T03:33:08;8.07;;;4.78;;
65162;SDS011;51751;55.714;37.436;2022-11-20T03:35:36;10.18;;;5.35;;
65162;SDS011;51751;55.714;37.436;2022-11-20T03:38:02;8.25;;;4.70;;
65162;SDS011;51751;55.714;37.436;2022-11-20T03:40:28;6.80;;;4.28;;
65162;SDS011;51751;55.714;37.436;2022-11-20T03:42:54;8.32;;;4.80;;
65162;SDS011;51751;55.714;37.436;2022-11-20T03:45:20;8.35;;;4.50;;
65162;SDS011;51751;55.714;37.436;2022-11-20T03:47:46;10.07;;;5.30;;
65162;SDS011;51751;55.714;37.436;2022-11-20T03:50:12;9.65;;;4.82;;
65162;SDS011;51751;55.714;37.436;2022-11-20T03:52:39;8.43;;;5.03;;
65162;SDS011;51751;55.714;37.436;2022-11-20T03:55:24;6.45;;;4.25;;
65162;SDS011;51751;55.714;37.436;2022-11-20T03:57:50;8.18;;;5.00;;
65162;SDS011;51751;55.714;37.436;2022-11-20T04:00:15;7.88;;;4.70;;
65162;SDS011;51751;55.714;37.436;2022-11-20T04:02:41;7.90;;;4.68;;
65162;SDS011;51751;55.714;37.436;2022-11-20T04:05:08;8.70;;;5.20;;
65162;SDS011;51751;55.714;37.436;2022-11-20T04:07:48;7.07;;;4.40;;
65162;SDS011;51751;55.714;37.436;2022-11-20T04:10:14;9.38;;;4.70;;
65162;SDS011;51751;55.714;37.436;2022-11-20T04:12:40;7.93;;;4.45;;
65162;SDS011;51751;55.714;37.436;2022-11-20T04:15:09;9.02;;;4.82;;
65162;SDS011;51751;55.714;37.436;2022-11-20T04:17:36;8.68;;;5.07;;
65162;SDS011;51751;55.714;37.436;2022-11-20T04:20:02;8.63;;;5.32;;
65162;SDS011;51751;55.714;37.436;2022-11-20T04:22:29;8.30;;;4.72;;
65162;SDS011;51751;55.714;37.436;2022-11-20T04:24:57;7.95;;;5.03;;
65162;SDS011;51751;55.714;37.436;2022-11-20T04:27:26;9.07;;;4.72;;
65162;SDS011;51751;55.714;37.436;2022-11-20T04:29:52;9.90;;;5.35;;
65162;SDS011;51751;55.714;37.436;2022-11-20T04:32:20;9.27;;;4.55;;
65162;SDS011;51751;55.714;37.436;2022-11-20T04:34:46;8.10;;;4.65;;
65162;SDS011;51751;55.714;37.436;2022-11-20T04:37:12;10.10;;;4.80;;
65162;SDS011;51751;55.714;37.436;2022-11-20T04:39:38;8.75;;;5.07;;
65162;SDS011;51751;55.714;37.436;2022-11-20T04:42:04;8.95;;;5.13;;
65162;SDS011;51751;55.714;37.436;2022-11-20T04:44:48;7.88;;;4.65;;
65162;SDS011;51751;55.714;37.436;2022-11-20T04:47:17;10.85;;;5.72;;
65162;SDS011;51751;55.714;37.436;2022-11-20T04:49:43;8.20;;;5.10;;
65162;SDS011;51751;55.714;37.436;2022-11-20T04:52:14;9.63;;;5.00;;
65162;SDS011;51751;55.714;37.436;2022-11-20T04:54:40;8.65;;;4.75;;
65162;SDS011;51751;55.714;37.436;2022-11-20T04:57:06;9.23;;;5.38;;
65162;SDS011;51751;55.714;37.436;2022-11-20T04:59:31;9.50;;;5.15;;
65162;SDS011;51751;55.714;37.436;2022-11-20T05:01:57;8.52;;;5.22;;
65162;SDS011;51751;55.714;37.436;2022-11-20T05:04:23;9.55;;;5.25;;
65162;SDS011;51751;55.714;37.436;2022-11-20T05:06:49;11.50;;;5.93;;
65162;SDS011;51751;55.714;37.436;2022-11-20T05:09:18;10.38;;;4.78;;
65162;SDS011;51751;55.714;37.436;2022-11-20T05:11:53;10.47;;;4.93;;
65162;SDS011;51751;55.714;37.436;2022-11-20T05:14:21;9.23;;;5.38;;
65162;SDS011;51751;55.714;37.436;2022-11-20T05:16:47;12.55;;;5.28;;
65162;SDS011;51751;55.714;37.436;2022-11-20T05:19:18;12.07;;;5.63;;
65162;SDS011;51751;55.714;37.436;2022-11-20T05:21:49;8.45;;;5.53;;
65162;SDS011;51751;55.714;37.436;2022-11-20T05:24:15;11.20;;;6.20;;
65162;SDS011;51751;55.714;37.436;2022-11-20T05:26:40;8.95;;;5.57;;
65162;SDS011;51751;55.714;37.436;2022-11-20T05:29:10;11.73;;;5.97;;
65162;SDS011;51751;55.714;37.436;2022-11-20T05:31:38;10.32;;;5.75;;
65162;SDS011;51751;55.714;37.436;2022-11-20T05:34:05;9.68;;;5.57;;
65162;SDS011;51751;55.714;37.436;2022-11-20T05:36:37;11.18;;;5.35;;
65162;SDS011;51751;55.714;37.436;2022-11-20T05:39:03;12.48;;;6.07;;
65162;SDS011;51751;55.714;37.436;2022-11-20T05:41:29;11.20;;;5.85;;
65162;SDS011;51751;55.714;37.436;2022-11-20T05:43:55;12.80;;;5.88;;
65162;SDS011;51751;55.714;37.436;2022-11-20T05:46:22;10.10;;;5.57;;
65162;SDS011;51751;55.714;37.436;2022-11-20T05:48:47;11.63;;;6.05;;
65162;SDS011;51751;55.714;37.436;2022-11-20T05:51:14;12.13;;;5.95;;
65162;SDS011;51751;55.714;37.436;2022-11-20T05:53:41;13.00;;;6.20;;
65162;SDS011;51751;55.714;37.436;2022-11-20T05:56:15;12.57;;;5.90;;
65162;SDS011;51751;55.714;37.436;2022-11-20T05:58:43;15.32;;;6.05;;
65162;SDS011;51751;55.714;37.436;2022-11-20T06:01:20;12.48;;;5.93;;
65162;SDS011;51751;55.714;37.436;2022-11-20T06:03:47;9.80;;;6.05;;
65162;SDS011;51751;55.714;37.436;2022-11-20T06:06:16;10.02;;;6.03;;
65162;SDS011;51751;55.714;37.436;2022-11-20T06:08:43;11.93;;;6.47;;
65162;SDS011;51751;55.714;37.436;2022-11-20T06:11:10;11.90;;;6.57;;
65162;SDS011;51751;55.714;37.436;2022-11-20T06:13:38;11.15;;;6.82;;
65162;SDS011;51751;55.714;37.436;2022-11-20T06:16:07;11.57;;;5.97;;
65162;SDS011;51751;55.714;37.436;2022-11-20T06:18:33;11.18;;;6.22;;
65162;SDS011;51751;55.714;37.436;2022-11-20T06:21:04;11.48;;;6.32;;
65162;SDS011;51751;55.714;37.436;2022-11-20T06:23:32;13.27;;;6.47;;
65162;SDS011;51751;55.714;37.436;2022-11-20T06:26:05;10.45;;;6.15;;
65162;SDS011;51751;55.714;37.436;2022-11-20T06:28:54;11.20;;;6.43;;
65162;SDS011;51751;55.714;37.436;2022-11-20T06:31:22;10.65;;;6.20;;
65162;SDS011;51751;55.714;37.436;2022-11-20T06:33:53;12.77;;;6.55;;
65162;SDS011;51751;55.714;37.436;2022-11-20T06:36:20;10.45;;;6.60;;
65162;SDS011;51751;55.714;37.436;2022-11-20T06:38:47;10.30;;;6.35;;
65162;SDS011;51751;55.714;37.436;2022-11-20T06:41:14;12.82;;;6.20;;
65162;SDS011;51751;55.714;37.436;2022-11-20T06:43:41;12.35;;;6.95;;
65162;SDS011;51751;55.714;37.436;2022-11-20T06:46:09;10.50;;;5.40;;
65162;SDS011;51751;55.714;37.436;2022-11-20T06:48:46;11.10;;;6.38;;
65162;SDS011;51751;55.714;37.436;2022-11-20T06:51:13;10.38;;;6.25;;
65162;SDS011;51751;55.714;37.436;2022-11-20T06:53:39;11.75;;;5.80;;
65162;SDS011;51751;55.714;37.436;2022-11-20T06:56:06;12.60;;;6.57;;
65162;SDS011;51751;55.714;37.436;2022-11-20T06:58:32;12.25;;;6.43;;
65162;SDS011;51751;55.714;37.436;2022-11-20T07:01:03;11.27;;;6.47;;
65162;SDS011;51751;55.714;37.436;2022-11-20T07:03:31;11.15;;;6.53;;
65162;SDS011;51751;55.714;37.436;2022-11-20T07:05:58;12.63;;;7.20;;
65162;SDS011;51751;55.714;37.436;2022-11-20T07:08:24;12.35;;;7.05;;
65162;SDS011;51751;55.714;37.436;2022-11-20T07:10:50;10.10;;;6.32;;
65162;SDS011;51751;55.714;37.436;2022-11-20T07:13:16;12.52;;;6.85;;
65162;SDS011;51751;55.714;37.436;2022-11-20T07:15:42;11.52;;;6.55;;
65162;SDS011;51751;55.714;37.436;2022-11-20T07:18:08;13.43;;;6.75;;
65162;SDS011;51751;55.714;37.436;2022-11-20T07:20:34;12.43;;;6.93;;
65162;SDS011;51751;55.714;37.436;2022-11-20T07:23:00;11.73;;;6.00;;
65162;SDS011;51751;55.714;37.436;2022-11-20T07:25:26;13.75;;;6.97;;
65162;SDS011;51751;55.714;37.436;2022-11-20T07:27:53;14.18;;;6.57;;
65162;SDS011;51751;55.714;37.436;2022-11-20T07:30:22;13.40;;;7.35;;
65162;SDS011;51751;55.714;37.436;2022-11-20T07:32:51;12.88;;;7.80;;
65162;SDS011;51751;55.714;37.436;2022-11-20T07:35:18;16.42;;;7.70;;
65162;SDS011;51751;55.714;37.436;2022-11-20T07:37:44;12.57;;;7.22;;
65162;SDS011;51751;55.714;37.436;2022-11-20T07:40:11;17.67;;;7.95;;
65162;SDS011;51751;55.714;37.436;2022-11-20T07:42:38;14.60;;;7.70;;
65162;SDS011;51751;55.714;37.436;2022-11-20T07:45:04;14.30;;;8.05;;
65162;SDS011;51751;55.714;37.436;2022-11-20T07:47:36;13.45;;;7.40;;
65162;SDS011;51751;55.714;37.436;2022-11-20T07:50:21;14.48;;;7.88;;
65162;SDS011;51751;55.714;37.436;2022-11-20T07:52:47;13.70;;;7.72;;
65162;SDS011;51751;55.714;37.436;2022-11-20T07:55:13;13.30;;;7.80;;
65162;SDS011;51751;55.714;37.436;2022-11-20T07:57:39;11.18;;;7.20;;
65162;SDS011;51751;55.714;37.436;2022-11-20T08:00:05;16.52;;;8.23;;
65162;SDS011;51751;55.714;37.436;2022-11-20T08:02:41;15.60;;;7.85;;
65162;SDS011;51751;55.714;37.436;2022-11-20T08:05:08;15.80;;;8.18;;
65162;SDS011;51751;55.714;37.436;2022-11-20T08:07:38;16.13;;;8.13;;
65162;SDS011;51751;55.714;37.436;2022-11-20T08:10:27;16.35;;;8.32;;
65162;SDS011;51751;55.714;37.436;2022-11-20T08:12:53;16.35;;;8.65;;
65162;SDS011;51751;55.714;37.436;2022-11-20T08:15:51;22.33;;;9.00;;
65162;SDS011;51751;55.714;37.436;2022-11-20T08:18:17;17.63;;;8.93;;
65162;SDS011;51751;55.714;37.436;2022-11-20T08:20:43;18.00;;;9.13;;
65162;SDS011;51751;55.714;37.436;2022-11-20T08:23:09;18.75;;;9.48;;
65162;SDS011;51751;55.714;37.436;2022-11-20T08:25:35;16.85;;;8.90;;
65162;SDS011;51751;55.714;37.436;2022-11-20T08:28:03;18.90;;;9.13;;
65162;SDS011;51751;55.714;37.436;2022-11-20T08:30:31;17.67;;;9.27;;
65162;SDS011;51751;55.714;37.436;2022-11-20T08:33:01;18.60;;;9.48;;
65162;SDS011;51751;55.714;37.436;2022-11-20T08:35:31;16.38;;;9.85;;
65162;SDS011;51751;55.714;37.436;2022-11-20T08:37:58;19.52;;;9.73;;
65162;SDS011;51751;55.714;37.436;2022-11-20T08:40:24;19.70;;;8.30;;
65162;SDS011;51751;55.714;37.436;2022-11-20T08:42:50;16.67;;;8.65;;
65162;SDS011;51751;55.714;37.436;2022-11-20T08:45:17;16.88;;;9.40;;
65162;SDS011;51751;55.714;37.436;2022-11-20T08:47:44;17.65;;;9.43;;
65162;SDS011;51751;55.714;37.436;2022-11-20T08:50:11;18.42;;;9.65;;
65162;SDS011;51751;55.714;37.436;2022-11-20T08:52:38;16.60;;;9.40;;
65162;SDS011;51751;55.714;37.436;2022-11-20T08:55:04;20.00;;;10.05;;
65162;SDS011;51751;55.714;37.436;2022-11-20T08:57:32;20.55;;;10.05;;
65162;SDS011;51751;55.714;37.436;2022-11-20T08:59:58;21.15;;;9.88;;
65162;SDS011;51751;55.714;37.436;2022-11-20T09:02:24;18.92;;;9.18;;
65162;SDS011;51751;55.714;37.436;2022-11-20T09:04:50;18.45;;;9.40;;
65162;SDS011;51751;55.714;37.436;2022-11-20T09:07:16;20.00;;;9.73;;
65162;SDS011;51751;55.714;37.436;2022-11-20T09:09:42;20.48;;;10.13;;
65162;SDS011;51751;55.714;37.436;2022-11-20T09:12:08;17.52;;;9.55;;
65162;SDS011;51751;55.714;37.436;2022-11-20T09:14:34;20.65;;;10.80;;
65162;SDS011;51751;55.714;37.436;2022-11-20T09:17:00;30.00;;;11.60;;
65162;SDS011;51751;55.714;37.436;2022-11-20T09:19:44;25.35;;;12.65;;
65162;SDS011;51751;55.714;37.436;2022-11-20T09:22:10;28.80;;;11.55;;
65162;SDS011;51751;55.714;37.436;2022-11-20T09:24:36;25.52;;;11.63;;
65162;SDS011;51751;55.714;37.436;2022-11-20T09:27:05;26.67;;;11.68;;
65162;SDS011;51751;55.714;37.436;2022-11-20T09:29:31;29.40;;;11.98;;
65162;SDS011;51751;55.714;37.436;2022-11-20T09:31:57;31.58;;;13.57;;
65162;SDS011;51751;55.714;37.436;2022-11-20T09:34:23;37.35;;;14.10;;
65162;SDS011;51751;55.714;37.436;2022-11-20T09:36:49;28.10;;;11.82;;
65162;SDS011;51751;55.714;37.436;2022-11-20T09:39:15;27.73;;;10.95;;
65162;SDS011;51751;55.714;37.436;2022-11-20T09:41:48;24.00;;;10.75;;
65162;SDS011;51751;55.714;37.436;2022-11-20T09:55:33;31.52;;;11.27;;
65162;SDS011;51751;55.714;37.436;2022-11-20T09:58:01;20.65;;;10.15;;
65162;SDS011;51751;55.714;37.436;2022-11-20T10:00:28;26.83;;;9.90;;
65162;SDS011;51751;55.714;37.436;2022-11-20T10:03:05;25.67;;;10.95;;
65162;SDS011;51751;55.714;37.436;2022-11-20T10:05:44;20.08;;;8.80;;
65162;SDS011;51751;55.714;37.436;2022-11-20T10:08:36;23.77;;;9.88;;
65162;SDS011;51751;55.714;37.436;2022-11-20T10:12:17;26.05;;;11.57;;
65162;SDS011;51751;55.714;37.436;2022-11-20T10:14:39;20.48;;;10.05;;
65162;SDS011;51751;55.714;37.436;2022-11-20T10:17:30;24.02;;;10.93;;
65162;SDS011;51751;55.714;37.436;2022-11-20T10:34:02;19.23;;;8.77;;
65162;SDS011;51751;55.714;37.436;2022-11-20T10:36:37;17.17;;;9.00;;
65162;SDS011;51751;55.714;37.436;2022-11-20T10:39:07;20.00;;;9.05;;
65162;SDS011;51751;55.714;37.436;2022-11-20T10:41:41;19.65;;;9.60;;
65162;SDS011;51751;55.714;37.436;2022-11-20T10:44:17;18.75;;;8.93;;
65162;SDS011;51751;55.714;37.436;2022-11-20T10:47:17;21.10;;;9.82;;
65162;SDS011;51751;55.714;37.436;2022-11-20T10:49:53;17.88;;;9.00;;
65162;SDS011;51751;55.714;37.436;2022-11-20T11:00:37;20.23;;;7.53;;
65162;SDS011;51751;55.714;37.436;2022-11-20T11:03:07;17.02;;;8.07;;
65162;SDS011;51751;55.714;37.436;2022-11-20T11:08:24;11.73;;;6.15;;
65162;SDS011;51751;55.714;37.436;2022-11-20T11:13:24;13.77;;;6.45;;
65162;SDS011;51751;55.714;37.436;2022-11-20T11:15:51;11.02;;;5.85;;
65162;SDS011;51751;55.714;37.436;2022-11-20T11:18:28;11.43;;;6.55;;
65162;SDS011;51751;55.714;37.436;2022-11-20T11:20:56;11.82;;;6.57;;
65162;SDS011;51751;55.714;37.436;2022-11-20T11:26:02;12.15;;;6.72;;
65162;SDS011;51751;55.714;37.436;2022-11-20T11:28:30;14.10;;;7.55;;
65162;SDS011;51751;55.714;37.436;2022-11-20T11:30:56;12.80;;;7.32;;
65162;SDS011;51751;55.714;37.436;2022-11-20T11:33:23;15.35;;;6.72;;
65162;SDS011;51751;55.714;37.436;2022-11-20T11:35:54;10.27;;;5.85;;
65162;SDS011;51751;55.714;37.436;2022-11-20T11:38:29;11.35;;;6.40;;
65162;SDS011;51751;55.714;37.436;2022-11-20T11:41:02;12.90;;;6.38;;
65162;SDS011;51751;55.714;37.436;2022-11-20T11:43:30;13.82;;;7.07;;
65162;SDS011;51751;55.714;37.436;2022-11-20T11:48:56;11.60;;;6.68;;
65162;SDS011;51751;55.714;37.436;2022-11-20T11:51:25;11.35;;;6.45;;
65162;SDS011;51751;55.714;37.436;2022-11-20T11:53:54;12.45;;;6.75;;
65162;SDS011;51751;55.714;37.436;2022-11-20T11:56:22;13.25;;;7.10;;
65162;SDS011;51751;55.714;37.436;2022-11-20T11:58:50;12.73;;;6.88;;
65162;SDS011;51751;55.714;37.436;2022-11-20T12:01:20;17.23;;;6.90;;
65162;SDS011;51751;55.714;37.436;2022-11-20T12:06:44;13.85;;;7.38;;
65162;SDS011;51751;55.714;37.436;2022-11-20T12:09:13;14.07;;;7.35;;
65162;SDS011;51751;55.714;37.436;2022-11-20T12:16:53;15.70;;;7.63;;
65162;SDS011;51751;55.714;37.436;2022-11-20T12:19:21;14.45;;;7.30;;
65162;SDS011;51751;55.714;37.436;2022-11-20T12:43:21;13.73;;;7.45;;
65162;SDS011;51751;55.714;37.436;2022-11-20T12:48:45;14.02;;;6.55;;
65162;SDS011;51751;55.714;37.436;2022-11-20T12:57:00;15.30;;;6.97;;
65162;SDS011;51751;55.714;37.436;2022-11-20T13:07:38;12.60;;;6.50;;
65162;SDS011;51751;55.714;37.436;2022-11-20T13:10:06;12.13;;;6.95;;
65162;SDS011;51751;55.714;37.436;2022-11-20T13:12:41;12.07;;;6.78;;
65162;SDS011;51751;55.714;37.436;2022-11-20T13:18:06;12.00;;;6.53;;
65162;SDS011;51751;55.714;37.436;2022-11-20T13:20:35;9.90;;;5.53;;
65162;SDS011;51751;55.714;37.436;2022-11-20T13:23:01;14.15;;;7.32;;
65162;SDS011;51751;55.714;37.436;2022-11-20T13:25:28;12.43;;;6.63;;
65162;SDS011;51751;55.714;37.436;2022-11-20T13:28:27;12.77;;;6.30;;
65162;SDS011;51751;55.714;37.436;2022-11-20T13:30:53;12.88;;;6.85;;
65162;SDS011;51751;55.714;37.436;2022-11-20T13:33:33;15.07;;;6.95;;
65162;SDS011;51751;55.714;37.436;2022-11-20T13:36:01;15.23;;;7.50;;
65162;SDS011;51751;55.714;37.436;2022-11-20T13:38:39;10.95;;;6.80;;
65162;SDS011;51751;55.714;37.436;2022-11-20T13:41:10;14.27;;;7.05;;
65162;SDS011;51751;55.714;37.436;2022-11-20T13:43:57;24.08;;;7.50;;
65162;SDS011;51751;55.714;37.436;2022-11-20T13:52:04;17.23;;;7.40;;
65162;SDS011;51751;55.714;37.436;2022-11-20T13:54:58;12.95;;;7.55;;
65162;SDS011;51751;55.714;37.436;2022-11-20T14:00:09;17.65;;;8.45;;
65162;SDS011;51751;55.714;37.436;2022-11-20T14:02:38;15.68;;;7.95;;
65162;SDS011;51751;55.714;37.436;2022-11-20T14:05:04;13.00;;;7.15;;
65162;SDS011;51751;55.714;37.436;2022-11-20T14:07:40;19.20;;;8.30;;
65162;SDS011;51751;55.714;37.436;2022-11-20T14:10:24;16.25;;;7.63;;
65162;SDS011;51751;55.714;37.436;2022-11-20T14:13:22;13.85;;;7.10;;
65162;SDS011;51751;55.714;37.436;2022-11-20T14:15:49;12.90;;;6.80;;
65162;SDS011;51751;55.714;37.436;2022-11-20T14:18:22;15.80;;;7.63;;
65162;SDS011;51751;55.714;37.436;2022-11-20T14:20:50;13.15;;;7.10;;
65162;SDS011;51751;55.714;37.436;2022-11-20T14:23:32;12.48;;;7.32;;
65162;SDS011;51751;55.714;37.436;2022-11-20T14:25:57;13.43;;;6.75;;
65162;SDS011;51751;55.714;37.436;2022-11-20T14:28:27;12.40;;;6.88;;
65162;SDS011;51751;55.714;37.436;2022-11-20T14:30:54;11.95;;;6.65;;
65162;SDS011;51751;55.714;37.436;2022-11-20T14:33:25;12.05;;;6.70;;
65162;SDS011;51751;55.714;37.436;2022-11-20T14:35:55;12.23;;;7.05;;
65162;SDS011;51751;55.714;37.436;2022-11-20T14:38:26;13.90;;;7.22;;
65162;SDS011;51751;55.714;37.436;2022-11-20T14:40:53;13.18;;;7.15;;
65162;SDS011;51751;55.714;37.436;2022-11-20T14:43:23;15.48;;;7.70;;
65162;SDS011;51751;55.714;37.436;2022-11-20T14:46:01;17.48;;;7.85;;
65162;SDS011;51751;55.714;37.436;2022-11-20T14:48:33;13.10;;;7.20;;
65162;SDS011;51751;55.714;37.436;2022-11-20T14:51:05;15.00;;;7.97;;
65162;SDS011;51751;55.714;37.436;2022-11-20T14:53:37;13.65;;;7.35;;
65162;SDS011;51751;55.714;37.436;2022-11-20T14:56:07;13.98;;;7.25;;
65162;SDS011;51751;55.714;37.436;2022-11-20T14:58:40;11.07;;;7.05;;
65162;SDS011;51751;55.714;37.436;2022-11-20T15:01:11;14.25;;;8.10;;
65162;SDS011;51751;55.714;37.436;2022-11-20T15:03:39;12.88;;;6.93;;
65162;SDS011;51751;55.714;37.436;2022-11-20T15:06:10;11.25;;;6.78;;
65162;SDS011;51751;55.714;37.436;2022-11-20T15:08:37;13.93;;;6.45;;
65162;SDS011;51751;55.714;37.436;2022-11-20T15:11:16;13.50;;;7.05;;
65162;SDS011;51751;55.714;37.436;2022-11-20T15:14:03;14.18;;;6.70;;
65162;SDS011;51751;55.714;37.436;2022-11-20T15:16:31;14.77;;;6.85;;
65162;SDS011;51751;55.714;37.436;2022-11-20T15:18:58;12.30;;;7.03;;
65162;SDS011;51751;55.714;37.436;2022-11-20T15:21:25;11.25;;;6.93;;
65162;SDS011;51751;55.714;37.436;2022-11-20T15:23:51;12.30;;;7.40;;
65162;SDS011;51751;55.714;37.436;2022-11-20T15:26:26;13.75;;;7.05;;
65162;SDS011;51751;55.714;37.436;2022-11-20T15:29:14;11.40;;;6.35;;
65162;SDS011;51751;55.714;37.436;2022-11-20T15:31:44;12.75;;;6.72;;
65162;SDS011;51751;55.714;37.436;2022-11-20T15:34:10;14.13;;;7.25;;
65162;SDS011;51751;55.714;37.436;2022-11-20T15:36:38;13.55;;;7.80;;
65162;SDS011;51751;55.714;37.436;2022-11-20T15:39:05;13.48;;;7.03;;
65162;SDS011;51751;55.714;37.436;2022-11-20T15:41:36;13.35;;;7.65;;
65162;SDS011;51751;55.714;37.436;2022-11-20T15:44:04;15.00;;;7.30;;
65162;SDS011;51751;55.714;37.436;2022-11-20T15:46:31;12.82;;;7.43;;
65162;SDS011;51751;55.714;37.436;2022-11-20T15:49:03;12.10;;;7.15;;
65162;SDS011;51751;55.714;37.436;2022-11-20T15:53:58;12.13;;;7.03;;
65162;SDS011;51751;55.714;37.436;2022-11-20T15:56:25;13.18;;;7.28;;
65162;SDS011;51751;55.714;37.436;2022-11-20T15:58:51;13.55;;;8.00;;
65162;SDS011;51751;55.714;37.436;2022-11-20T16:01:19;12.70;;;7.30;;
65162;SDS011;51751;55.714;37.436;2022-11-20T16:03:49;13.20;;;7.82;;
65162;SDS011;51751;55.714;37.436;2022-11-20T16:06:17;13.88;;;7.82;;
65162;SDS011;51751;55.714;37.436;2022-11-20T16:08:49;15.68;;;7.63;;
65162;SDS011;51751;55.714;37.436;2022-11-20T16:11:18;21.50;;;8.20;;
65162;SDS011;51751;55.714;37.436;2022-11-20T16:13:44;21.60;;;8.13;;
65162;SDS011;51751;55.714;37.436;2022-11-20T16:16:33;17.50;;;8.43;;
65162;SDS011;51751;55.714;37.436;2022-11-20T16:19:03;17.95;;;8.18;;
65162;SDS011;51751;55.714;37.436;2022-11-20T16:21:29;17.33;;;8.00;;
65162;SDS011;51751;55.714;37.436;2022-11-20T16:24:00;24.27;;;9.05;;
65162;SDS011;51751;55.714;37.436;2022-11-20T16:26:33;14.57;;;7.85;;
65162;SDS011;51751;55.714;37.436;2022-11-20T16:28:59;16.67;;;7.60;;